Time;durP1;ratioP1;P1;durP2;ratioP2;P2;SDS_P1;SDS_P2;PMS_P1;PMS_P2;Temp;Humidity;BMP_temperature;BMP_pressure;BME280_temperature;BME280_humidity;BME280_pressure;Samples;Min_cycle;Max_cycle;Signal;HPM_P1;HPM_P2
2021/04/29 04:16:21;;;;;;;2.13;1.98;;;;;;;10.69;91.07;97658.59;5586120;23;20045;-69
2021/04/29 04:18:47;;;;;;;2.03;1.90;;;;;;;10.74;90.31;97664.44;5032058;28;20045;-68
2021/04/29 04:21:12;;;;;;;1.98;1.88;;;;;;;10.69;90.78;97658.59;5031848;28;20029;-69
2021/04/29 04:23:37;;;;;;;1.70;1.60;;;;;;;10.49;90.07;97670.50;5031972;28;20024;-69
2021/04/29 04:26:03;;;;;;;2.03;1.48;;;;;;;10.49;90.49;97678.28;5024119;28;20493;-69
2021/04/29 04:28:28;;;;;;;2.22;1.60;;;;;;;10.42;89.68;97671.59;5012003;28;20018;-69
2021/04/29 04:30:54;;;;;;;2.20;1.48;;;;;;;10.50;89.82;97674.78;5033023;22;20048;-70
2021/04/29 04:33:20;;;;;;;1.50;1.40;;;;;;;10.62;89.23;97683.00;5031757;28;20025;-70
2021/04/29 04:35:45;;;;;;;1.92;1.63;;;;;;;10.65;89.98;97688.09;5031910;28;20022;-70
2021/04/29 04:38:11;;;;;;;1.70;1.60;;;;;;;10.65;89.70;97678.56;5031844;28;20021;-70
2021/04/29 04:40:36;;;;;;;1.50;1.40;;;;;;;10.68;87.88;97680.19;5026800;28;20486;-70
2021/04/29 04:43:02;;;;;;;3.58;1.50;;;;;;;10.73;86.99;97686.03;5010725;28;20029;-70
2021/04/29 04:45:27;;;;;;;2.10;1.73;;;;;;;10.79;86.77;97693.63;5011986;28;20485;-70
2021/04/29 04:47:52;;;;;;;1.50;1.40;;;;;;;10.66;86.71;97684.59;5011924;28;20049;-70
2021/04/29 04:50:18;;;;;;;2.33;1.60;;;;;;;10.80;87.87;97683.19;5011745;28;20195;-70
2021/04/29 04:52:43;;;;;;;1.67;1.48;;;;;;;10.81;86.67;97691.78;5012013;28;20049;-70
2021/04/29 04:55:09;;;;;;;3.35;1.40;;;;;;;10.70;87.46;97692.19;5011933;28;20028;-70
2021/04/29 04:57:35;;;;;;;3.35;1.73;;;;;;;10.74;87.33;97698.13;5011970;28;20482;-70
2021/04/29 05:00:00;;;;;;;2.13;1.77;;;;;;;10.70;89.82;97693.94;5014143;28;20029;-70
2021/04/29 05:02:26;;;;;;;1.95;1.70;;;;;;;10.86;88.85;97697.66;5015626;28;20025;-70
2021/04/29 05:04:51;;;;;;;3.72;2.83;;;;;;;10.96;87.50;97699.00;5015547;28;20029;-70
2021/04/29 05:07:17;;;;;;;1.92;1.80;;;;;;;10.96;87.42;97703.34;5015620;28;20030;-71
2021/04/29 05:09:42;;;;;;;2.55;2.10;;;;;;;11.21;86.35;97713.66;5015256;28;20563;-71
2021/04/29 05:12:10;;;;;;;2.17;2.00;;;;;;;11.14;86.22;97719.97;5015518;28;20061;-72
2021/04/29 05:14:35;;;;;;;2.25;2.00;;;;;;;11.29;86.67;97727.19;5015375;28;20037;-72
2021/04/29 05:17:00;;;;;;;6.28;2.40;;;;;;;11.29;86.33;97732.34;5015452;28;20021;-72
2021/04/29 05:19:26;;;;;;;2.42;2.25;;;;;;;11.10;87.07;97732.19;5015291;28;20025;-72
2021/04/29 05:21:51;;;;;;;3.00;2.05;;;;;;;11.04;88.68;97733.28;5015236;28;20441;-72
2021/04/29 05:24:17;;;;;;;2.60;1.85;;;;;;;11.26;87.40;97737.66;5015333;28;20030;-72
2021/04/29 05:26:42;;;;;;;3.63;2.13;;;;;;;11.29;87.51;97732.34;5015088;28;20026;-72
2021/04/29 05:29:08;;;;;;;4.18;2.10;;;;;;;11.54;87.23;97727.91;5015128;28;20024;-72
2021/04/29 05:31:34;;;;;;;1.95;1.85;;;;;;;11.62;83.23;97734.56;5014913;28;20048;-72
2021/04/29 05:33:59;;;;;;;2.22;2.03;;;;;;;11.69;82.46;97736.00;5014972;28;20467;-72
2021/04/29 05:36:24;;;;;;;2.42;1.90;;;;;;;11.66;81.83;97736.16;5015263;28;20034;-72
2021/04/29 05:38:50;;;;;;;1.77;1.67;;;;;;;11.73;82.69;97725.44;5014889;28;20026;-72
2021/04/29 05:41:16;;;;;;;2.22;1.70;;;;;;;11.70;83.16;97720.41;5014861;28;20021;-72
2021/04/29 05:43:41;;;;;;;2.85;1.80;;;;;;;11.78;82.88;97720.06;5014706;28;20052;-72
2021/04/29 05:46:07;;;;;;;2.05;1.85;;;;;;;11.33;82.55;97724.41;5014855;28;20022;-72
2021/04/29 05:48:32;;;;;;;2.28;1.50;;;;;;;11.45;82.75;97728.25;5014819;28;20034;-73
2021/04/29 05:50:58;;;;;;;7.75;1.80;;;;;;;11.80;84.02;97713.94;5014414;28;20030;-73
2021/04/29 05:53:24;;;;;;;5.00;1.92;;;;;;;11.86;83.74;97718.06;5014764;28;20486;-73
2021/04/29 05:55:49;;;;;;;4.55;2.25;;;;;;;11.59;84.39;97726.00;5014571;28;20426;-73
2021/04/29 05:58:14;;;;;;;2.70;2.08;;;;;;;11.58;84.47;97728.66;5014661;28;20021;-72
2021/04/29 06:00:40;;;;;;;2.78;2.10;;;;;;;11.74;82.76;97728.88;5014215;28;20105;-73
2021/04/29 06:03:06;;;;;;;3.72;1.70;;;;;;;11.91;83.50;97718.72;5014564;28;20068;-72
2021/04/29 06:05:31;;;;;;;1.70;1.60;;;;;;;11.95;83.00;97727.25;5004513;28;20041;-72
2021/04/29 06:07:58;;;;;;;3.25;1.77;;;;;;;12.14;81.97;97732.53;4998153;28;20022;-73
2021/04/29 06:10:24;;;;;;;2.10;1.83;;;;;;;12.26;80.85;97729.41;4999066;28;20373;-73
2021/04/29 06:12:50;;;;;;;2.72;1.50;;;;;;;12.32;78.54;97742.97;5003392;28;20029;-73
2021/04/29 06:15:16;;;;;;;3.65;1.77;;;;;;;12.53;76.26;97741.25;5013682;28;20021;-72
2021/04/29 06:17:41;;;;;;;2.00;1.80;;;;;;;12.29;75.16;97752.66;5014265;28;20121;-72
2021/04/29 06:20:07;;;;;;;2.45;2.05;;;;;;;12.26;77.59;97752.78;5013779;28;20101;-72
2021/04/29 06:22:33;;;;;;;5.18;2.13;;;;;;;12.45;76.38;97758.91;5013909;28;20109;-71
2021/04/29 06:24:58;;;;;;;2.03;1.70;;;;;;;12.52;76.90;97755.16;4994463;28;20451;-71
2021/04/29 06:27:23;;;;;;;2.40;1.90;;;;;;;12.36;72.85;97748.91;4994217;28;20398;-71
2021/04/29 06:29:49;;;;;;;7.30;2.10;;;;;;;12.04;73.86;97748.47;4994158;28;20068;-71
2021/04/29 06:32:14;;;;;;;2.53;2.10;;;;;;;11.88;73.60;97751.72;4994060;28;20490;-71
2021/04/29 06:34:39;;;;;;;3.65;2.38;;;;;;;12.19;73.48;97746.16;4994277;28;20426;-71
2021/04/29 06:37:05;;;;;;;5.50;2.20;;;;;;;12.48;69.67;97748.41;4993001;28;20463;-71
2021/04/29 06:39:31;;;;;;;2.63;2.10;;;;;;;12.52;70.58;97743.88;4994573;28;20014;-71
2021/04/29 06:41:57;;;;;;;7.07;3.22;;;;;;;13.09;70.56;97745.72;4993861;28;20037;-71
2021/04/29 06:44:22;;;;;;;6.22;2.83;;;;;;;13.28;65.20;97742.31;4992769;28;20026;-71
2021/04/29 06:46:48;;;;;;;2.58;1.98;;;;;;;13.75;65.42;97734.91;4993980;28;20069;-71
2021/04/29 06:49:13;;;;;;;6.97;2.00;;;;;;;14.36;63.96;97741.50;4992950;28;20092;-71
2021/04/29 06:51:39;;;;;;;5.07;2.10;;;;;;;15.79;59.18;97738.31;4993648;28;20037;-71
2021/04/29 06:54:06;;;;;;;3.50;2.08;;;;;;;16.75;53.30;97738.94;4993877;28;20505;-71
2021/04/29 06:56:31;;;;;;;3.70;2.17;;;;;;;16.64;55.19;97737.78;4993698;28;20073;-71
2021/04/29 06:58:56;;;;;;;3.25;2.20;;;;;;;15.96;57.55;97740.00;4993337;28;20054;-71
2021/04/29 07:01:22;;;;;;;5.80;2.53;;;;;;;15.68;56.69;97740.69;5009155;28;20021;-71
2021/04/29 07:03:47;;;;;;;7.18;2.60;;;;;;;17.85;51.53;97732.16;5013327;28;20057;-71
2021/04/29 07:06:12;;;;;;;4.05;2.08;;;;;;;19.45;48.08;97739.69;5013139;28;20467;-71
2021/04/29 07:08:38;;;;;;;2.92;2.17;;;;;;;20.47;43.09;97730.59;5013112;28;20565;-71
2021/04/29 07:11:04;;;;;;;3.58;1.70;;;;;;;21.19;41.56;97725.91;5012262;28;20026;-71
2021/04/29 07:13:31;;;;;;;6.25;2.13;;;;;;;21.44;41.75;97729.28;5012643;28;20061;-71
2021/04/29 07:15:56;;;;;;;4.72;2.08;;;;;;;20.34;42.73;97737.69;5012960;28;20029;-71
2021/04/29 07:18:21;;;;;;;7.93;2.20;;;;;;;20.75;42.63;97738.09;5013261;28;20076;-71
2021/04/29 07:20:47;;;;;;;5.05;2.50;;;;;;;21.64;40.40;97735.63;5012546;28;20030;-71
2021/04/29 07:23:13;;;;;;;2.55;1.63;;;;;;;22.22;40.23;97742.31;5011612;28;20025;-71
2021/04/29 07:25:38;;;;;;;4.05;1.95;;;;;;;21.74;39.78;97753.22;5012749;28;20029;-71
2021/04/29 07:28:05;;;;;;;4.25;2.35;;;;;;;21.30;41.27;97754.06;5012679;28;20072;-71
2021/04/29 07:30:31;;;;;;;3.65;1.92;;;;;;;20.96;42.40;97755.81;5012436;28;20022;-71
2021/04/29 07:32:57;;;;;;;3.05;2.05;;;;;;;21.95;39.79;97744.53;5012678;28;20018;-71
2021/04/29 07:35:22;;;;;;;2.53;2.20;;;;;;;22.78;38.43;97749.13;5010921;28;20445;-71
2021/04/29 07:37:48;;;;;;;8.93;2.80;;;;;;;23.34;37.02;97752.22;5012562;28;20030;-70
2021/04/29 07:40:14;;;;;;;5.32;2.50;;;;;;;22.87;38.76;97747.50;5011775;28;20018;-69
2021/04/29 07:42:39;;;;;;;7.85;2.83;;;;;;;22.99;37.06;97746.50;5012548;28;20483;-69
2021/04/29 07:45:05;;;;;;;4.47;2.38;;;;;;;22.21;39.73;97740.66;5011340;28;20025;-69
2021/04/29 07:47:30;;;;;;;3.72;2.30;;;;;;;21.69;41.35;97739.56;5009486;28;20022;-69
2021/04/29 07:49:56;;;;;;;5.43;2.70;;;;;;;21.03;41.52;97743.84;5003723;28;20076;-69
2021/04/29 07:52:21;;;;;;;3.90;3.00;;;;;;;19.88;44.23;97746.34;4996495;28;20022;-69
2021/04/29 07:54:47;;;;;;;2.42;2.15;;;;;;;21.17;41.82;97742.78;5003000;28;20053;-70
2021/04/29 07:57:12;;;;;;;5.13;2.67;;;;;;;20.49;42.40;97747.09;4998489;28;20022;-70
2021/04/29 07:59:37;;;;;;;3.92;3.20;;;;;;;18.74;45.80;97754.22;4993963;28;20030;-69
2021/04/29 08:02:03;;;;;;;5.18;3.33;;;;;;;19.87;43.32;97763.03;5012098;28;20431;-69
2021/04/29 08:04:29;;;;;;;7.43;3.33;;;;;;;19.08;46.65;97761.59;5012247;28;20038;-69
2021/04/29 08:06:55;;;;;;;7.15;3.38;;;;;;;18.51;45.03;97752.25;5011890;28;20029;-69
2021/04/29 08:09:21;;;;;;;5.03;3.42;;;;;;;18.57;45.77;97759.75;5011684;28;20033;-70
2021/04/29 08:11:46;;;;;;;11.30;4.47;;;;;;;19.95;44.02;97750.19;5011673;28;20394;-69
2021/04/29 08:14:11;;;;;;;8.10;3.85;;;;;;;21.68;40.27;97751.06;5012268;28;20025;-69
2021/04/29 08:16:37;;;;;;;5.55;3.65;;;;;;;22.67;38.09;97742.09;5011664;28;20028;-69
2021/04/29 08:19:02;;;;;;;5.15;3.58;;;;;;;23.43;35.77;97733.91;5012186;28;20028;-69
2021/04/29 08:21:28;;;;;;;5.28;3.45;;;;;;;21.96;37.59;97740.94;5010983;28;20541;-69
2021/04/29 08:23:55;;;;;;;11.50;4.15;;;;;;;19.56;42.06;97757.31;5011975;28;20025;-69
2021/04/29 08:26:20;;;;;;;4.60;3.42;;;;;;;20.67;41.14;97756.25;5010776;28;20026;-69
2021/04/29 08:28:45;;;;;;;8.35;4.30;;;;;;;20.39;41.33;97757.44;5011871;28;20036;-69
2021/04/29 08:31:11;;;;;;;6.97;4.10;;;;;;;20.37;43.38;97758.50;5011761;28;20033;-69
2021/04/29 08:33:36;;;;;;;6.68;4.00;;;;;;;20.94;40.64;97758.59;5012380;28;20025;-69
2021/04/29 08:36:01;;;;;;;8.00;4.35;;;;;;;19.97;42.29;97764.06;5015874;28;20483;-69
2021/04/29 08:38:27;;;;;;;7.18;4.30;;;;;;;19.87;41.60;97771.78;5015908;28;20106;-69
2021/04/29 08:40:52;;;;;;;5.55;3.80;;;;;;;19.91;41.44;97767.13;5015587;28;20028;-69
2021/04/29 08:43:19;;;;;;;5.63;4.03;;;;;;;18.62;44.19;97764.69;5015919;28;20475;-69
2021/04/29 08:45:44;;;;;;;10.07;4.80;;;;;;;17.28;46.84;97766.28;5014940;28;20026;-69
2021/04/29 08:48:14;;;;;;;8.98;4.53;;;;;;;18.02;45.92;97771.22;5015474;28;20037;-69
2021/04/29 08:50:39;;;;;;;;;;;;;;;18.48;44.41;97765.59;5014299;28;20032;-69
2021/04/29 08:53:05;;;;;;;11.95;5.32;;;;;;;20.00;41.51;97759.41;5007367;28;19992;-69
2021/04/29 08:55:30;;;;;;;10.00;4.85;;;;;;;19.24;41.82;97765.69;4999312;28;20164;-69
2021/04/29 08:57:56;;;;;;;6.57;5.35;;;;;;;17.89;44.35;97765.06;5003969;28;20654;-69
2021/04/29 09:00:22;;;;;;;14.25;5.70;;;;;;;18.56;45.27;97763.28;5003772;28;20030;-69
2021/04/29 09:02:48;;;;;;;9.98;5.18;;;;;;;17.91;44.76;97768.44;5014240;28;20026;-71
2021/04/29 09:05:14;;;;;;;10.38;5.45;;;;;;;17.28;45.48;97763.66;5015580;28;20017;-71
2021/04/29 09:07:53;;;;;;;7.60;4.63;;;;;;;17.02;47.79;97768.69;5014612;28;20393;-71
2021/04/29 09:10:34;;;;;;;12.00;5.60;;;;;;;16.62;49.55;97771.00;5014935;28;20079;-71
2021/04/29 09:13:12;;;;;;;11.00;6.20;;;;;;;16.75;48.23;97775.56;4995719;28;20022;-71
2021/04/29 09:15:39;;;;;;;11.13;6.38;;;;;;;16.78;46.75;97776.25;4995715;28;20557;-71
2021/04/29 09:18:13;;;;;;;10.68;5.93;;;;;;;16.84;46.47;97764.56;4995501;28;20065;-71
2021/04/29 09:20:57;;;;;;;7.30;5.07;;;;;;;18.80;42.13;97754.75;4899466;28;20066;-71
2021/04/29 09:23:29;;;;;;;8.45;5.28;;;;;;;18.52;42.67;97761.84;4927300;28;20024;-71
2021/04/29 09:26:00;;;;;;;14.55;5.35;;;;;;;17.75;44.56;97768.59;4979785;28;20029;-71
2021/04/29 09:28:48;;;;;;;8.40;5.15;;;;;;;17.11;45.34;97762.88;4964850;28;20035;-71
2021/04/29 09:31:13;;;;;;;6.32;5.68;;;;;;;16.50;46.95;97763.91;4955492;29;20033;-71
2021/04/29 09:33:44;;;;;;;7.55;5.40;;;;;;;16.98;47.23;97753.28;4956383;28;20110;-71
2021/04/29 09:36:27;;;;;;;11.55;4.85;;;;;;;17.82;45.03;97748.06;4956649;28;20047;-71
2021/04/29 09:38:58;;;;;;;10.30;5.28;;;;;;;17.04;45.41;97756.34;4956370;28;20062;-71
2021/04/29 09:41:38;;;;;;;5.55;4.53;;;;;;;16.83;46.32;97757.66;4956106;29;20097;-71
2021/04/29 09:44:07;;;;;;;14.88;5.68;;;;;;;16.67;45.78;97763.75;4955355;28;20118;-71
2021/04/29 09:46:53;;;;;;;11.98;5.22;;;;;;;16.43;47.20;97770.41;4955816;29;20054;-71
2021/04/29 09:49:37;;;;;;;15.20;5.85;;;;;;;16.15;49.05;97769.38;4956440;28;20384;-71
2021/04/29 09:52:15;;;;;;;7.47;4.95;;;;;;;15.91;49.94;97779.44;4956036;29;20027;-71
2021/04/29 09:54:40;;;;;;;12.77;4.95;;;;;;;15.65;49.83;97788.69;4980270;28;20022;-71
2021/04/29 09:57:09;;;;;;;11.40;5.10;;;;;;;15.36;50.34;97802.44;4972240;28;20041;-71
2021/04/29 09:59:40;;;;;;;7.57;5.88;;;;;;;14.81;58.89;97826.19;4957809;28;20019;-71
2021/04/29 10:02:06;;;;;;;14.07;6.15;;;;;;;14.00;67.36;97833.53;4975202;28;20034;-71
2021/04/29 10:04:32;;;;;;;7.07;5.85;;;;;;;12.96;69.02;97827.78;4959590;28;20082;-71
2021/04/29 10:07:02;;;;;;;7.72;6.00;;;;;;;13.79;70.19;97821.53;4954914;28;20019;-71
2021/04/29 10:09:29;;;;;;;6.82;5.20;;;;;;;14.11;67.17;97820.00;4955954;28;20030;-71
2021/04/29 10:12:04;;;;;;;7.50;5.32;;;;;;;14.00;67.27;97823.13;4955746;29;20373;-71
2021/04/29 10:14:37;;;;;;;11.10;7.22;;;;;;;14.02;67.95;97805.69;4955824;28;20031;-71
2021/04/29 10:17:06;;;;;;;7.18;5.55;;;;;;;14.24;64.56;97804.63;4959558;28;20106;-71
2021/04/29 10:19:35;;;;;;;8.30;6.15;;;;;;;14.52;62.56;97799.78;4974160;28;20022;-71
2021/04/29 10:22:01;;;;;;;10.27;6.63;;;;;;;17.00;55.51;97786.25;4974877;28;20269;-71
2021/04/29 10:24:27;;;;;;;9.88;4.30;;;;;;;20.33;45.72;97783.38;4982857;28;20026;-71
2021/04/29 10:27:29;;;;;;;7.45;4.85;;;;;;;21.24;42.85;97776.47;4972966;28;20106;-71
2021/04/29 10:32:57;;;;;;;4.95;4.45;;;;;;;20.94;42.72;97773.56;4965001;28;20047;-72
2021/04/29 10:35:24;;;;;;;12.07;4.00;;;;;;;20.71;42.52;97773.50;4969921;28;20031;-72
2021/04/29 10:37:54;;;;;;;6.25;4.45;;;;;;;20.47;43.17;97772.69;4961003;28;20513;-71
2021/04/29 10:40:49;;;;;;;6.47;3.97;;;;;;;20.02;44.75;97772.47;4965825;28;20022;-71
2021/04/29 10:43:14;;;;;;;6.35;3.72;;;;;;;19.48;45.29;97775.41;4949382;28;20062;-70
2021/04/29 10:45:51;;;;;;;8.13;4.03;;;;;;;18.90;45.03;97779.41;4954070;28;20474;-70
2021/04/29 10:48:16;;;;;;;6.03;3.65;;;;;;;19.03;46.81;97772.41;4954071;28;20084;-70
2021/04/29 10:50:45;;;;;;;10.48;3.95;;;;;;;18.54;46.03;97770.44;4953677;28;20391;-70
2021/04/29 10:53:13;;;;;;;10.25;4.03;;;;;;;18.14;46.67;97773.06;4952727;28;20495;-70
2021/04/29 10:55:39;;;;;;;6.35;4.82;;;;;;;17.42;47.22;97771.50;4952718;28;20059;-70
2021/04/29 10:58:07;;;;;;;8.82;5.43;;;;;;;17.11;47.29;97773.34;4952902;28;20056;-70
2021/04/29 11:01:05;;;;;;;12.43;4.72;;;;;;;17.28;48.90;97777.56;4953441;28;20035;-70
2021/04/29 11:03:39;;;;;;;7.10;4.78;;;;;;;16.88;48.46;97781.78;4906729;28;21470;-70
2021/04/29 11:06:04;;;;;;;9.18;5.43;;;;;;;16.47;48.67;97789.38;4953009;28;20035;-70
2021/04/29 11:08:37;;;;;;;7.25;4.78;;;;;;;16.71;49.29;97785.34;4953249;28;20027;-70
2021/04/29 11:11:03;;;;;;;6.85;4.72;;;;;;;16.88;49.96;97776.53;4953019;28;20713;-70
2021/04/29 11:13:29;;;;;;;8.60;4.95;;;;;;;16.67;53.54;97774.19;4953141;28;20046;-70
2021/04/29 11:15:59;;;;;;;11.02;4.97;;;;;;;16.86;53.19;97784.47;4952458;28;20026;-70
2021/04/29 11:18:24;;;;;;;;;;;;;;;16.80;53.47;97791.84;4953505;28;20144;-70
2021/04/29 11:20:54;;;;;;;9.50;4.68;;;;;;;16.37;55.50;97796.91;4952899;28;20004;-70
2021/04/29 11:23:27;;;;;;;7.40;4.85;;;;;;;15.62;55.42;97799.28;4953052;28;20031;-70
2021/04/29 11:26:10;;;;;;;5.07;4.65;;;;;;;14.90;56.96;97815.28;4953712;28;20053;-70
2021/04/29 11:28:35;;;;;;;5.85;4.25;;;;;;;14.90;56.06;97813.50;4953276;28;20500;-70
2021/04/29 11:31:01;;;;;;;6.55;4.03;;;;;;;14.82;55.27;97835.69;4953988;28;20063;-70
2021/04/29 11:33:46;;;;;;;6.47;4.10;;;;;;;13.81;57.66;97859.59;4954480;28;20023;-70
2021/04/29 11:36:31;;;;;;;4.95;4.28;;;;;;;13.44;62.37;97850.00;4954273;28;20027;-70
2021/04/29 11:38:58;;;;;;;4.95;4.13;;;;;;;13.94;61.60;97844.25;4953956;28;20054;-70
2021/04/29 11:41:26;;;;;;;6.32;4.05;;;;;;;14.23;60.62;97855.06;4953354;28;20172;-70
2021/04/29 11:43:58;;;;;;;4.43;3.60;;;;;;;14.24;57.33;97862.78;4954232;28;20552;-70
2021/04/29 11:46:24;;;;;;;3.70;3.40;;;;;;;13.77;55.29;97858.03;4953926;28;20038;-70
2021/04/29 11:49:01;;;;;;;7.57;3.58;;;;;;;13.92;55.28;97877.31;4954238;28;20027;-70
2021/04/29 11:51:29;;;;;;;3.65;3.30;;;;;;;14.01;54.92;97876.06;4952936;28;20034;-70
2021/04/29 11:54:02;;;;;;;7.45;3.50;;;;;;;13.76;55.81;97881.53;4953997;28;20031;-70
2021/04/29 11:56:47;;;;;;;4.32;3.03;;;;;;;14.58;53.83;97862.06;4954127;28;20046;-70
2021/04/29 11:59:13;;;;;;;6.15;3.40;;;;;;;14.67;53.59;97862.53;4954195;28;20455;-70
2021/04/29 12:01:39;;;;;;;4.88;3.17;;;;;;;15.05;53.54;97861.47;4953637;28;20019;-69
2021/04/29 12:04:19;;;;;;;7.85;3.70;;;;;;;15.45;50.68;97858.56;4953012;28;20054;-69
2021/04/29 12:06:45;;;;;;;;;;;;;;;15.03;51.90;97860.66;4954123;28;20034;-68
2021/04/29 12:09:11;;;;;;;5.43;3.35;;;;;;;15.55;49.98;97868.41;4953098;28;19910;-68
2021/04/29 12:11:36;;;;;;;6.22;3.75;;;;;;;15.17;50.30;97870.41;4945807;28;20381;-69
2021/04/29 12:14:02;;;;;;;3.90;3.20;;;;;;;14.82;50.67;97854.78;4948726;28;20028;-69
2021/04/29 12:16:32;;;;;;;6.78;3.72;;;;;;;14.73;51.33;97859.59;4949550;29;20392;-68
2021/04/29 12:18:59;;;;;;;9.13;4.22;;;;;;;14.21;53.92;97868.16;4953920;28;20126;-69
2021/04/29 12:21:28;;;;;;;6.43;3.78;;;;;;;14.43;54.43;97878.41;4929195;28;20552;-69
2021/04/29 12:23:59;;;;;;;13.45;4.07;;;;;;;14.44;55.63;97863.59;4856641;28;20109;-69
2021/04/29 12:26:36;;;;;;;8.10;3.42;;;;;;;15.86;52.20;97859.84;4933571;29;20028;-69
2021/04/29 12:29:04;;;;;;;5.10;3.92;;;;;;;16.39;51.42;97861.28;4938353;29;20062;-69
2021/04/29 12:31:30;;;;;;;6.70;3.60;;;;;;;16.93;48.03;97859.06;4952069;28;20027;-69
2021/04/29 12:34:06;;;;;;;4.40;3.53;;;;;;;16.82;48.92;97868.44;4953714;28;20019;-68
2021/04/29 12:36:50;;;;;;;5.05;3.60;;;;;;;16.82;47.50;97857.97;4953727;28;20082;-69
2021/04/29 12:39:17;;;;;;;3.80;3.28;;;;;;;16.77;48.03;97857.41;4952914;28;20016;-69
2021/04/29 12:41:46;;;;;;;3.35;3.00;;;;;;;16.32;48.29;97859.06;4953263;28;20449;-69
2021/04/29 12:44:11;;;;;;;4.30;2.93;;;;;;;15.94;50.45;97856.81;4953713;28;20027;-69
2021/04/29 12:46:39;;;;;;;4.55;3.50;;;;;;;16.15;48.15;97849.56;4953338;28;20271;-69
2021/04/29 12:49:05;;;;;;;4.53;3.00;;;;;;;16.09;48.73;97855.13;4952726;28;20027;-69
2021/04/29 12:51:31;;;;;;;7.43;2.97;;;;;;;15.82;48.63;97867.94;4953186;28;20047;-69
2021/04/29 12:54:02;;;;;;;3.95;2.95;;;;;;;15.59;48.56;97863.88;4953414;28;20133;-69
2021/04/29 12:56:36;;;;;;;5.45;2.63;;;;;;;15.97;49.17;97858.41;4953552;28;20031;-68
2021/04/29 12:59:11;;;;;;;7.82;2.67;;;;;;;16.51;48.43;97848.41;4953343;28;20023;-69
2021/04/29 13:01:37;;;;;;;3.42;2.72;;;;;;;16.65;47.12;97854.56;4950945;28;20104;-69
2021/04/29 13:04:03;;;;;;;5.55;3.45;;;;;;;16.62;45.95;97867.78;4953385;28;20035;-69
2021/04/29 13:06:29;;;;;;;3.72;3.13;;;;;;;16.16;46.77;97873.00;4944282;29;20500;-69
2021/04/29 13:09:02;;;;;;;5.88;3.10;;;;;;;16.73;46.74;97868.97;4940651;28;20019;-69
2021/04/29 13:11:39;;;;;;;3.28;2.83;;;;;;;16.69;46.74;97871.75;4953043;28;20389;-69
2021/04/29 13:14:29;;;;;;;4.65;2.95;;;;;;;16.86;46.67;97875.19;4952558;28;20468;-69
2021/04/29 13:16:55;;;;;;;3.20;2.33;;;;;;;17.02;45.98;97869.91;4953332;28;20027;-69
2021/04/29 13:19:21;;;;;;;5.63;2.75;;;;;;;16.22;46.80;97886.66;4953186;28;20081;-69
2021/04/29 13:21:47;;;;;;;6.32;2.97;;;;;;;15.95;47.25;97874.16;4956331;28;20027;-69
2021/04/29 13:24:17;;;;;;;6.63;2.80;;;;;;;15.35;48.93;97869.47;4956115;28;20066;-69
2021/04/29 13:26:44;;;;;;;3.65;2.38;;;;;;;14.94;50.08;97874.22;4956467;28;20499;-69
2021/04/29 13:29:09;;;;;;;9.00;2.90;;;;;;;15.05;51.21;97856.25;4956729;28;20026;-68
2021/04/29 13:31:35;;;;;;;4.88;2.85;;;;;;;14.89;51.60;97863.13;4954853;28;20519;-69
2021/04/29 13:34:03;;;;;;;3.13;2.80;;;;;;;14.80;52.74;97863.63;4956612;29;20034;-68
2021/04/29 13:36:29;;;;;;;5.97;3.50;;;;;;;14.49;53.74;97867.72;4955044;28;20049;-69
2021/04/29 13:38:54;;;;;;;4.10;3.17;;;;;;;14.58;53.18;97867.25;4956467;28;20468;-68
2021/04/29 13:41:20;;;;;;;3.15;2.65;;;;;;;14.04;53.12;97870.72;4956262;28;20047;-69
2021/04/29 13:43:45;;;;;;;2.38;2.17;;;;;;;14.38;52.30;97862.16;4956468;28;20447;-69
2021/04/29 13:46:11;;;;;;;7.50;2.30;;;;;;;14.67;51.94;97865.13;4956430;28;20023;-69
2021/04/29 13:48:37;;;;;;;4.85;2.08;;;;;;;14.79;51.06;97861.91;4955173;28;20027;-69
2021/04/29 13:51:03;;;;;;;6.32;2.33;;;;;;;14.85;51.10;97869.44;4956047;28;20022;-69
2021/04/29 13:53:28;;;;;;;6.93;4.22;;;;;;;15.33;50.03;97865.28;4956195;28;20046;-69
2021/04/29 13:55:55;;;;;;;3.05;2.40;;;;;;;15.37;49.65;97862.38;4909404;28;20059;-69
2021/04/29 13:58:21;;;;;;;4.22;2.67;;;;;;;15.71;49.82;97859.81;4957716;28;20031;-69
2021/04/29 14:00:48;;;;;;;5.75;2.67;;;;;;;16.01;50.03;97852.94;4954868;28;20118;-69
2021/04/29 14:03:13;;;;;;;3.15;2.47;;;;;;;16.35;48.67;97845.84;4956212;28;20102;-69
2021/04/29 14:05:38;;;;;;;7.72;3.10;;;;;;;16.95;48.00;97838.88;4955333;28;20110;-69
2021/04/29 14:08:04;;;;;;;6.15;2.90;;;;;;;16.95;47.44;97841.47;4954604;29;20075;-69
2021/04/29 14:10:30;;;;;;;3.30;2.58;;;;;;;17.48;47.09;97850.53;4955119;28;20027;-69
2021/04/29 14:12:56;;;;;;;17.55;9.23;;;;;;;17.24;46.88;97840.69;4955571;28;20507;-69
2021/04/29 14:15:22;;;;;;;5.82;3.05;;;;;;;17.23;47.07;97839.00;4955992;28;20041;-69
2021/04/29 14:17:47;;;;;;;8.07;3.22;;;;;;;16.84;47.20;97846.50;4955728;28;20019;-69
2021/04/29 14:20:13;;;;;;;4.65;3.03;;;;;;;16.59;48.21;97843.59;4955699;28;20031;-69
2021/04/29 14:22:39;;;;;;;2.78;2.50;;;;;;;16.63;47.98;97845.09;4954384;28;20027;-69
2021/04/29 14:25:05;;;;;;;4.05;2.67;;;;;;;16.88;47.06;97841.94;4955697;28;20042;-69
2021/04/29 14:27:31;;;;;;;7.35;3.08;;;;;;;16.77;45.93;97841.72;4955379;28;20477;-69
2021/04/29 14:29:56;;;;;;;3.00;2.70;;;;;;;17.13;45.44;97842.19;4955639;28;20745;-69
2021/04/29 14:32:21;;;;;;;5.60;3.63;;;;;;;17.41;45.99;97830.06;4955125;28;20042;-69
2021/04/29 14:34:48;;;;;;;3.72;3.17;;;;;;;17.40;46.44;97828.34;4954331;28;20037;-69
2021/04/29 14:37:14;;;;;;;9.82;4.40;;;;;;;17.54;46.00;97837.97;4909185;28;20023;-69
2021/04/29 14:39:40;;;;;;;16.17;9.30;;;;;;;17.80;44.43;97836.44;4955124;28;20034;-69
2021/04/29 14:42:05;;;;;;;7.05;3.03;;;;;;;17.84;44.50;97837.88;4955510;28;20435;-69
2021/04/29 14:44:31;;;;;;;5.95;3.00;;;;;;;17.65;44.92;97836.41;4955141;28;20086;-69
2021/04/29 14:46:56;;;;;;;3.03;2.72;;;;;;;17.16;44.54;97834.16;4954392;28;20031;-69
2021/04/29 14:49:22;;;;;;;4.65;2.92;;;;;;;17.38;44.52;97836.31;4955132;28;20038;-69
2021/04/29 14:51:48;;;;;;;7.63;2.80;;;;;;;17.34;45.40;97844.44;4954797;28;20525;-69
2021/04/29 14:54:15;;;;;;;4.00;2.90;;;;;;;17.42;45.15;97842.22;4908682;28;20039;-69
2021/04/29 14:56:40;;;;;;;3.35;3.05;;;;;;;17.81;44.16;97836.31;4954486;28;20114;-69
2021/04/29 14:59:07;;;;;;;4.25;2.60;;;;;;;17.79;44.75;97832.09;4954706;28;20480;-69
2021/04/29 15:01:32;;;;;;;9.73;6.32;;;;;;;17.59;44.48;97830.69;4911299;28;20066;-69
2021/04/29 15:03:57;;;;;;;4.82;2.83;;;;;;;17.82;43.87;97821.44;4954977;28;20027;-69
2021/04/29 15:06:23;;;;;;;3.42;2.40;;;;;;;17.95;44.36;97822.34;4954352;28;20035;-69
2021/04/29 15:08:49;;;;;;;5.60;2.65;;;;;;;17.93;43.54;97824.22;4953927;28;20038;-69
2021/04/29 15:11:15;;;;;;;2.53;2.28;;;;;;;17.59;44.02;97831.53;4909881;28;20035;-69
2021/04/29 15:13:40;;;;;;;4.03;2.63;;;;;;;17.32;45.20;97828.00;4954684;28;20384;-69
2021/04/29 15:16:06;;;;;;;3.33;2.78;;;;;;;17.34;45.31;97836.59;4952805;28;20110;-69
2021/04/29 15:18:31;;;;;;;5.30;2.83;;;;;;;17.10;45.38;97829.25;4953907;28;20079;-68
2021/04/29 15:20:56;;;;;;;3.47;2.80;;;;;;;17.03;46.19;97832.34;4952801;28;20027;-68
2021/04/29 15:23:22;;;;;;;4.43;2.22;;;;;;;17.43;45.46;97831.63;4918724;28;20038;-69
2021/04/29 15:25:48;;;;;;;4.50;2.83;;;;;;;17.48;45.16;97821.72;4939676;28;20463;-69
2021/04/29 15:28:13;;;;;;;7.63;5.03;;;;;;;17.39;44.72;97829.28;4951956;28;20042;-68
2021/04/29 15:30:39;;;;;;;5.43;3.22;;;;;;;17.17;45.40;97825.34;4952959;28;20529;-69
2021/04/29 15:33:04;;;;;;;5.13;2.45;;;;;;;17.27;45.75;97827.44;4953160;28;20036;-69
2021/04/29 15:35:30;;;;;;;5.30;2.72;;;;;;;16.90;46.23;97827.00;4953300;28;20042;-68
2021/04/29 15:37:55;;;;;;;3.35;2.50;;;;;;;16.49;46.92;97837.19;4952577;28;20031;-68
2021/04/29 15:40:21;;;;;;;3.60;2.60;;;;;;;16.44;46.57;97829.63;4950466;28;20034;-68
2021/04/29 15:42:46;;;;;;;6.03;2.38;;;;;;;16.23;47.74;97838.66;4948866;28;20109;-69
2021/04/29 15:45:14;;;;;;;7.82;2.75;;;;;;;16.22;46.66;97834.38;4952816;28;20086;-69
2021/04/29 15:47:40;;;;;;;4.35;1.80;;;;;;;16.18;45.35;97839.75;4952665;28;20035;-67
2021/04/29 15:50:07;;;;;;;1.75;1.58;;;;;;;16.35;44.24;97840.63;4952494;28;20038;-68
2021/04/29 15:52:32;;;;;;;6.38;3.47;;;;;;;16.17;44.54;97838.09;4952872;28;20512;-68
2021/04/29 15:54:58;;;;;;;3.35;2.13;;;;;;;16.16;43.75;97830.34;4953086;28;20050;-68